sensor_id;sensor_type;location;lat;lon;timestamp;pressure;altitude;pressure_sealevel;temperature;humidity
70200;BME280;57587;55.688;37.600;2022-07-10T00:00:58;99067.59;;;17.85;76.56
70200;BME280;57587;55.688;37.600;2022-07-10T00:03:25;99057.59;;;17.86;75.94
70200;BME280;57587;55.688;37.600;2022-07-10T00:05:52;99048.00;;;17.78;75.54
70200;BME280;57587;55.688;37.600;2022-07-10T00:08:20;99038.91;;;17.84;76.03
70200;BME280;57587;55.688;37.600;2022-07-10T00:10:47;99032.53;;;17.90;75.78
70200;BME280;57587;55.688;37.600;2022-07-10T00:13:13;99022.59;;;17.96;72.92
70200;BME280;57587;55.688;37.600;2022-07-10T00:15:41;99036.47;;;18.00;73.16
70200;BME280;57587;55.688;37.600;2022-07-10T00:18:08;99038.59;;;17.97;72.82
70200;BME280;57587;55.688;37.600;2022-07-10T00:20:35;99022.25;;;17.92;72.97
70200;BME280;57587;55.688;37.600;2022-07-10T00:23:03;99024.25;;;17.97;71.88
70200;BME280;57587;55.688;37.600;2022-07-10T00:25:30;99015.38;;;18.02;73.00
70200;BME280;57587;55.688;37.600;2022-07-10T00:27:57;99021.97;;;18.06;72.89
70200;BME280;57587;55.688;37.600;2022-07-10T00:30:24;99032.63;;;18.12;74.56
70200;BME280;57587;55.688;37.600;2022-07-10T00:32:51;99027.69;;;18.09;74.31
70200;BME280;57587;55.688;37.600;2022-07-10T00:35:19;99028.25;;;18.11;74.46
70200;BME280;57587;55.688;37.600;2022-07-10T00:37:45;99020.13;;;18.11;74.29
70200;BME280;57587;55.688;37.600;2022-07-10T00:40:12;99014.22;;;18.14;75.89
70200;BME280;57587;55.688;37.600;2022-07-10T00:42:39;99019.41;;;18.16;76.09
70200;BME280;57587;55.688;37.600;2022-07-10T00:45:07;99010.78;;;18.19;72.04
70200;BME280;57587;55.688;37.600;2022-07-10T00:47:35;99012.00;;;18.28;75.92
70200;BME280;57587;55.688;37.600;2022-07-10T00:50:02;99020.94;;;18.29;71.96
70200;BME280;57587;55.688;37.600;2022-07-10T00:52:33;99028.50;;;18.27;72.60
70200;BME280;57587;55.688;37.600;2022-07-10T00:55:07;99009.81;;;18.25;73.24
70200;BME280;57587;55.688;37.600;2022-07-10T00:57:37;99022.25;;;18.26;72.01
70200;BME280;57587;55.688;37.600;2022-07-10T01:00:07;99023.94;;;18.27;71.18
70200;BME280;57587;55.688;37.600;2022-07-10T01:02:44;99013.41;;;18.31;70.82
70200;BME280;57587;55.688;37.600;2022-07-10T01:05:12;99008.31;;;18.34;72.46
70200;BME280;57587;55.688;37.600;2022-07-10T01:07:39;99001.31;;;18.38;68.05
70200;BME280;57587;55.688;37.600;2022-07-10T01:10:07;98999.50;;;18.44;72.64
70200;BME280;57587;55.688;37.600;2022-07-10T01:12:37;98995.81;;;18.50;72.20
70200;BME280;57587;55.688;37.600;2022-07-10T01:15:08;98996.94;;;18.54;72.78
70200;BME280;57587;55.688;37.600;2022-07-10T01:17:35;98999.84;;;18.48;69.99
70200;BME280;57587;55.688;37.600;2022-07-10T01:20:07;98996.31;;;18.47;69.30
70200;BME280;57587;55.688;37.600;2022-07-10T01:22:36;99003.13;;;18.50;71.21
70200;BME280;57587;55.688;37.600;2022-07-10T01:25:04;99014.19;;;18.48;68.01
70200;BME280;57587;55.688;37.600;2022-07-10T01:27:32;99006.81;;;18.43;68.43
70200;BME280;57587;55.688;37.600;2022-07-10T01:30:00;98998.69;;;18.43;69.30
70200;BME280;57587;55.688;37.600;2022-07-10T01:32:36;98979.25;;;18.47;69.63
70200;BME280;57587;55.688;37.600;2022-07-10T01:35:03;98980.13;;;18.52;71.20
70200;BME280;57587;55.688;37.600;2022-07-10T01:37:30;98980.94;;;18.53;67.26
70200;BME280;57587;55.688;37.600;2022-07-10T01:39:57;98976.34;;;18.53;68.96
70200;BME280;57587;55.688;37.600;2022-07-10T01:42:24;98975.28;;;18.54;68.43
70200;BME280;57587;55.688;37.600;2022-07-10T01:44:51;98964.75;;;18.58;70.69
70200;BME280;57587;55.688;37.600;2022-07-10T01:47:18;98973.38;;;18.55;71.91
70200;BME280;57587;55.688;37.600;2022-07-10T01:49:46;98967.91;;;18.50;69.64
70200;BME280;57587;55.688;37.600;2022-07-10T01:52:13;98969.53;;;18.51;68.50
70200;BME280;57587;55.688;37.600;2022-07-10T01:54:40;98975.53;;;18.53;68.34
70200;BME280;57587;55.688;37.600;2022-07-10T01:57:07;98974.97;;;18.51;68.66
70200;BME280;57587;55.688;37.600;2022-07-10T01:59:34;98968.41;;;18.47;67.63
70200;BME280;57587;55.688;37.600;2022-07-10T02:02:01;98981.88;;;18.41;68.63
70200;BME280;57587;55.688;37.600;2022-07-10T02:04:29;98985.34;;;18.37;69.31
70200;BME280;57587;55.688;37.600;2022-07-10T02:07:13;98980.25;;;18.24;70.86
70200;BME280;57587;55.688;37.600;2022-07-10T02:09:42;98982.91;;;18.18;71.12
70200;BME280;57587;55.688;37.600;2022-07-10T02:12:14;98984.38;;;18.09;71.27
70200;BME280;57587;55.688;37.600;2022-07-10T02:14:42;98982.91;;;18.02;71.21
70200;BME280;57587;55.688;37.600;2022-07-10T02:17:09;98986.69;;;18.01;70.53
70200;BME280;57587;55.688;37.600;2022-07-10T02:19:36;98985.53;;;17.96;70.00
70200;BME280;57587;55.688;37.600;2022-07-10T02:22:03;98979.28;;;17.96;70.96
70200;BME280;57587;55.688;37.600;2022-07-10T02:24:31;98986.34;;;17.97;71.30
70200;BME280;57587;55.688;37.600;2022-07-10T02:26:57;98987.25;;;18.03;70.22
70200;BME280;57587;55.688;37.600;2022-07-10T02:29:24;98993.56;;;18.08;70.69
70200;BME280;57587;55.688;37.600;2022-07-10T02:31:52;99006.38;;;18.13;70.19
70200;BME280;57587;55.688;37.600;2022-07-10T02:34:22;99000.28;;;18.23;70.50
70200;BME280;57587;55.688;37.600;2022-07-10T02:36:49;99001.91;;;18.40;70.05
70200;BME280;57587;55.688;37.600;2022-07-10T02:39:17;99000.53;;;18.60;70.57
70200;BME280;57587;55.688;37.600;2022-07-10T02:41:45;99001.72;;;18.86;68.93
70200;BME280;57587;55.688;37.600;2022-07-10T02:44:12;99005.50;;;19.07;68.39
70200;BME280;57587;55.688;37.600;2022-07-10T02:46:39;99006.78;;;19.21;68.12
70200;BME280;57587;55.688;37.600;2022-07-10T02:49:07;98999.09;;;19.40;67.30
70200;BME280;57587;55.688;37.600;2022-07-10T02:51:34;99003.59;;;19.56;67.07
70200;BME280;57587;55.688;37.600;2022-07-10T02:54:01;99000.78;;;19.68;67.25
70200;BME280;57587;55.688;37.600;2022-07-10T02:56:29;99002.50;;;19.79;66.51
70200;BME280;57587;55.688;37.600;2022-07-10T02:58:56;99003.91;;;19.87;66.94
70200;BME280;57587;55.688;37.600;2022-07-10T03:01:25;98996.78;;;19.76;66.15
70200;BME280;57587;55.688;37.600;2022-07-10T03:03:52;98995.41;;;19.73;67.81
70200;BME280;57587;55.688;37.600;2022-07-10T03:06:19;98999.13;;;19.67;67.73
70200;BME280;57587;55.688;37.600;2022-07-10T03:08:49;99003.25;;;19.70;68.98
70200;BME280;57587;55.688;37.600;2022-07-10T03:14:02;99011.94;;;19.72;67.23
70200;BME280;57587;55.688;37.600;2022-07-10T03:16:30;99002.09;;;19.66;66.51
70200;BME280;57587;55.688;37.600;2022-07-10T03:18:57;99004.59;;;19.72;66.96
70200;BME280;57587;55.688;37.600;2022-07-10T03:21:24;99009.31;;;19.82;65.93
70200;BME280;57587;55.688;37.600;2022-07-10T03:23:51;99007.66;;;19.81;66.61
70200;BME280;57587;55.688;37.600;2022-07-10T03:26:18;99009.19;;;19.67;67.21
70200;BME280;57587;55.688;37.600;2022-07-10T03:28:45;99007.13;;;19.57;67.25
70200;BME280;57587;55.688;37.600;2022-07-10T03:31:12;99013.06;;;19.54;67.36
70200;BME280;57587;55.688;37.600;2022-07-10T03:33:39;99010.88;;;19.51;67.49
70200;BME280;57587;55.688;37.600;2022-07-10T03:36:07;99015.13;;;19.42;67.14
70200;BME280;57587;55.688;37.600;2022-07-10T03:38:34;99014.47;;;19.29;67.61
70200;BME280;57587;55.688;37.600;2022-07-10T03:41:01;99013.00;;;19.22;67.67
70200;BME280;57587;55.688;37.600;2022-07-10T03:43:28;99017.25;;;19.12;67.51
70200;BME280;57587;55.688;37.600;2022-07-10T03:45:57;99018.56;;;19.10;68.51
70200;BME280;57587;55.688;37.600;2022-07-10T03:48:24;99020.47;;;19.09;68.38
70200;BME280;57587;55.688;37.600;2022-07-10T03:50:52;99010.94;;;19.07;68.59
70200;BME280;57587;55.688;37.600;2022-07-10T03:53:19;99001.69;;;19.03;69.43
70200;BME280;57587;55.688;37.600;2022-07-10T03:55:46;98997.34;;;19.02;69.20
70200;BME280;57587;55.688;37.600;2022-07-10T03:58:13;98987.53;;;19.01;69.39
70200;BME280;57587;55.688;37.600;2022-07-10T04:00:40;98983.19;;;19.00;69.36
70200;BME280;57587;55.688;37.600;2022-07-10T04:03:09;98966.75;;;19.06;70.16
70200;BME280;57587;55.688;37.600;2022-07-10T04:05:36;98966.03;;;19.16;69.17
70200;BME280;57587;55.688;37.600;2022-07-10T04:08:04;98951.41;;;19.17;70.05
70200;BME280;57587;55.688;37.600;2022-07-10T04:10:31;98950.34;;;19.18;70.14
70200;BME280;57587;55.688;37.600;2022-07-10T04:12:58;98942.28;;;19.28;69.42
70200;BME280;57587;55.688;37.600;2022-07-10T04:15:25;98949.47;;;19.40;68.81
70200;BME280;57587;55.688;37.600;2022-07-10T04:17:53;98932.25;;;19.56;68.62
70200;BME280;57587;55.688;37.600;2022-07-10T04:20:20;98934.56;;;19.69;67.14
70200;BME280;57587;55.688;37.600;2022-07-10T04:22:48;98938.69;;;19.77;66.19
70200;BME280;57587;55.688;37.600;2022-07-10T04:25:15;98951.28;;;19.88;65.59
70200;BME280;57587;55.688;37.600;2022-07-10T04:27:43;98948.41;;;20.05;65.17
70200;BME280;57587;55.688;37.600;2022-07-10T04:30:10;98941.97;;;20.16;64.56
70200;BME280;57587;55.688;37.600;2022-07-10T04:32:37;98943.84;;;20.58;62.86
70200;BME280;57587;55.688;37.600;2022-07-10T04:35:05;98930.00;;;21.79;60.12
70200;BME280;57587;55.688;37.600;2022-07-10T04:37:32;98938.03;;;22.66;56.62
70200;BME280;57587;55.688;37.600;2022-07-10T04:40:01;98940.25;;;23.63;54.67
70200;BME280;57587;55.688;37.600;2022-07-10T04:42:29;98938.03;;;23.65;54.97
70200;BME280;57587;55.688;37.600;2022-07-10T04:44:56;98935.41;;;23.55;53.89
70200;BME280;57587;55.688;37.600;2022-07-10T04:47:23;98932.81;;;23.34;53.74
70200;BME280;57587;55.688;37.600;2022-07-10T04:49:50;98923.47;;;23.40;54.35
70200;BME280;57587;55.688;37.600;2022-07-10T04:52:17;98940.16;;;23.78;53.31
70200;BME280;57587;55.688;37.600;2022-07-10T04:54:44;98942.31;;;24.88;50.44
70200;BME280;57587;55.688;37.600;2022-07-10T04:57:11;98950.31;;;24.84;50.03
70200;BME280;57587;55.688;37.600;2022-07-10T04:59:38;98945.81;;;24.93;50.75
70200;BME280;57587;55.688;37.600;2022-07-10T05:02:05;98936.00;;;25.68;49.37
70200;BME280;57587;55.688;37.600;2022-07-10T05:04:34;98937.41;;;25.98;47.38
70200;BME280;57587;55.688;37.600;2022-07-10T05:07:01;98941.38;;;26.66;46.61
70200;BME280;57587;55.688;37.600;2022-07-10T05:09:28;98925.41;;;26.96;45.32
70200;BME280;57587;55.688;37.600;2022-07-10T05:11:55;98919.94;;;26.68;45.86
70200;BME280;57587;55.688;37.600;2022-07-10T05:14:22;98924.81;;;26.43;47.06
70200;BME280;57587;55.688;37.600;2022-07-10T05:16:49;98923.06;;;26.34;46.43
70200;BME280;57587;55.688;37.600;2022-07-10T05:19:16;98914.94;;;26.84;45.68
70200;BME280;57587;55.688;37.600;2022-07-10T05:21:44;98918.09;;;27.64;44.49
70200;BME280;57587;55.688;37.600;2022-07-10T05:24:11;98923.38;;;28.59;41.72
70200;BME280;57587;55.688;37.600;2022-07-10T05:26:38;98922.84;;;28.57;41.76
70200;BME280;57587;55.688;37.600;2022-07-10T05:29:05;98918.84;;;28.32;41.68
70200;BME280;57587;55.688;37.600;2022-07-10T05:31:32;98928.50;;;28.52;42.02
70200;BME280;57587;55.688;37.600;2022-07-10T05:33:59;98931.63;;;28.67;41.55
70200;BME280;57587;55.688;37.600;2022-07-10T05:36:26;98939.53;;;29.26;40.77
70200;BME280;57587;55.688;37.600;2022-07-10T05:38:53;98932.56;;;29.03;40.57
70200;BME280;57587;55.688;37.600;2022-07-10T05:41:20;98930.28;;;29.05;41.64
70200;BME280;57587;55.688;37.600;2022-07-10T05:43:50;98934.06;;;29.17;41.63
70200;BME280;57587;55.688;37.600;2022-07-10T05:46:17;98923.03;;;30.43;38.24
70200;BME280;57587;55.688;37.600;2022-07-10T05:48:44;98930.88;;;30.62;37.91
70200;BME280;57587;55.688;37.600;2022-07-10T05:51:14;98928.88;;;30.41;37.87
70200;BME280;57587;55.688;37.600;2022-07-10T05:53:57;98938.59;;;31.36;36.48
70200;BME280;57587;55.688;37.600;2022-07-10T05:56:24;98926.66;;;31.99;36.04
70200;BME280;57587;55.688;37.600;2022-07-10T05:58:51;98934.59;;;32.58;35.00
70200;BME280;57587;55.688;37.600;2022-07-10T06:01:18;98939.97;;;33.40;34.63
70200;BME280;57587;55.688;37.600;2022-07-10T06:03:45;98924.72;;;34.18;32.26
70200;BME280;57587;55.688;37.600;2022-07-10T06:06:15;98924.22;;;34.60;31.25
70200;BME280;57587;55.688;37.600;2022-07-10T06:08:43;98934.72;;;35.02;30.86
70200;BME280;57587;55.688;37.600;2022-07-10T06:11:13;98924.59;;;35.10;30.33
70200;BME280;57587;55.688;37.600;2022-07-10T06:13:40;98923.75;;;34.74;30.87
70200;BME280;57587;55.688;37.600;2022-07-10T06:16:07;98924.06;;;34.53;31.70
70200;BME280;57587;55.688;37.600;2022-07-10T06:18:34;98929.34;;;33.42;33.25
70200;BME280;57587;55.688;37.600;2022-07-10T06:21:02;98930.22;;;32.69;34.68
70200;BME280;57587;55.688;37.600;2022-07-10T06:23:29;98928.50;;;31.74;36.76
70200;BME280;57587;55.688;37.600;2022-07-10T06:25:59;98927.94;;;31.80;36.32
70200;BME280;57587;55.688;37.600;2022-07-10T06:28:26;98928.13;;;32.42;35.88
70200;BME280;57587;55.688;37.600;2022-07-10T06:30:53;98923.13;;;32.23;36.25
70200;BME280;57587;55.688;37.600;2022-07-10T06:33:26;98917.81;;;31.51;37.69
70200;BME280;57587;55.688;37.600;2022-07-10T06:35:53;98920.59;;;30.80;38.65
70200;BME280;57587;55.688;37.600;2022-07-10T06:38:20;98913.03;;;30.29;39.20
70200;BME280;57587;55.688;37.600;2022-07-10T06:40:47;98921.81;;;30.14;39.62
70200;BME280;57587;55.688;37.600;2022-07-10T06:43:14;98921.56;;;29.11;41.79
70200;BME280;57587;55.688;37.600;2022-07-10T06:45:41;98931.97;;;28.66;42.90
70200;BME280;57587;55.688;37.600;2022-07-10T06:48:09;98939.94;;;28.14;44.27
70200;BME280;57587;55.688;37.600;2022-07-10T06:50:36;98929.13;;;27.86;44.40
70200;BME280;57587;55.688;37.600;2022-07-10T06:53:05;98925.16;;;28.01;44.45
70200;BME280;57587;55.688;37.600;2022-07-10T06:55:33;98930.03;;;28.04;44.06
70200;BME280;57587;55.688;37.600;2022-07-10T06:58:00;98937.25;;;27.91;44.22
70200;BME280;57587;55.688;37.600;2022-07-10T07:00:28;98924.34;;;27.33;45.81
70200;BME280;57587;55.688;37.600;2022-07-10T07:02:56;98930.66;;;27.06;46.34
70200;BME280;57587;55.688;37.600;2022-07-10T07:05:23;98933.25;;;26.75;47.35
70200;BME280;57587;55.688;37.600;2022-07-10T07:07:50;98928.81;;;26.51;47.56
70200;BME280;57587;55.688;37.600;2022-07-10T07:10:18;98936.19;;;26.51;47.57
70200;BME280;57587;55.688;37.600;2022-07-10T07:12:45;98931.03;;;26.77;47.08
70200;BME280;57587;55.688;37.600;2022-07-10T07:15:12;98938.91;;;28.63;43.74
70200;BME280;57587;55.688;37.600;2022-07-10T07:17:41;98941.22;;;29.62;38.98
70200;BME280;57587;55.688;37.600;2022-07-10T07:20:25;98920.91;;;29.40;40.12
70200;BME280;57587;55.688;37.600;2022-07-10T07:23:13;98937.72;;;30.08;37.85
70200;BME280;57587;55.688;37.600;2022-07-10T07:25:41;98934.22;;;30.85;36.87
70200;BME280;57587;55.688;37.600;2022-07-10T07:28:14;98934.22;;;32.23;34.85
70200;BME280;57587;55.688;37.600;2022-07-10T07:30:48;98947.06;;;32.89;32.74
70200;BME280;57587;55.688;37.600;2022-07-10T07:33:16;98932.75;;;31.71;34.41
70200;BME280;57587;55.688;37.600;2022-07-10T07:35:43;98939.63;;;30.72;37.15
70200;BME280;57587;55.688;37.600;2022-07-10T07:38:10;98953.03;;;29.71;38.43
70200;BME280;57587;55.688;37.600;2022-07-10T07:40:38;98929.38;;;29.70;38.80
70200;BME280;57587;55.688;37.600;2022-07-10T07:43:05;98945.22;;;29.56;38.42
70200;BME280;57587;55.688;37.600;2022-07-10T07:45:33;98939.09;;;29.76;38.54
70200;BME280;57587;55.688;37.600;2022-07-10T07:48:00;98945.78;;;30.40;38.04
70200;BME280;57587;55.688;37.600;2022-07-10T07:50:32;98948.63;;;30.90;36.40
70200;BME280;57587;55.688;37.600;2022-07-10T07:53:06;98948.53;;;31.70;34.89
70200;BME280;57587;55.688;37.600;2022-07-10T07:55:34;98938.75;;;32.52;34.16
70200;BME280;57587;55.688;37.600;2022-07-10T07:58:02;98944.28;;;32.89;33.63
70200;BME280;57587;55.688;37.600;2022-07-10T08:00:30;98943.84;;;33.23;33.34
70200;BME280;57587;55.688;37.600;2022-07-10T08:02:58;98933.50;;;34.05;31.75
70200;BME280;57587;55.688;37.600;2022-07-10T08:05:27;98932.53;;;34.29;31.58
70200;BME280;57587;55.688;37.600;2022-07-10T08:07:57;98930.81;;;34.72;29.58
70200;BME280;57587;55.688;37.600;2022-07-10T08:10:26;98923.03;;;34.46;30.29
70200;BME280;57587;55.688;37.600;2022-07-10T08:12:53;98921.66;;;33.64;31.79
70200;BME280;57587;55.688;37.600;2022-07-10T08:15:21;98922.03;;;33.10;32.58
70200;BME280;57587;55.688;37.600;2022-07-10T08:17:50;98928.03;;;32.63;32.27
70200;BME280;57587;55.688;37.600;2022-07-10T08:20:18;98924.22;;;31.43;32.84
70200;BME280;57587;55.688;37.600;2022-07-10T08:22:45;98924.34;;;31.05;34.62
70200;BME280;57587;55.688;37.600;2022-07-10T08:25:14;98934.78;;;30.69;34.87
70200;BME280;57587;55.688;37.600;2022-07-10T08:27:41;98923.31;;;30.50;35.61
70200;BME280;57587;55.688;37.600;2022-07-10T08:30:09;98911.25;;;30.63;35.66
70200;BME280;57587;55.688;37.600;2022-07-10T08:32:39;98919.31;;;30.68;35.46
70200;BME280;57587;55.688;37.600;2022-07-10T08:35:08;98912.41;;;30.53;35.23
70200;BME280;57587;55.688;37.600;2022-07-10T08:40:08;98920.28;;;30.72;35.26
70200;BME280;57587;55.688;37.600;2022-07-10T08:42:36;98909.63;;;30.62;34.92
70200;BME280;57587;55.688;37.600;2022-07-10T08:45:04;98918.00;;;30.74;35.58
70200;BME280;57587;55.688;37.600;2022-07-10T08:47:34;98909.72;;;30.45;34.42
70200;BME280;57587;55.688;37.600;2022-07-10T08:50:29;98914.88;;;29.99;35.28
70200;BME280;57587;55.688;37.600;2022-07-10T08:53:07;98922.38;;;30.46;36.16
70200;BME280;57587;55.688;37.600;2022-07-10T08:55:36;98926.25;;;30.83;34.54
70200;BME280;57587;55.688;37.600;2022-07-10T08:58:04;98921.16;;;31.15;34.82
70200;BME280;57587;55.688;37.600;2022-07-10T09:00:31;98918.34;;;31.65;34.19
70200;BME280;57587;55.688;37.600;2022-07-10T09:02:59;98916.66;;;32.06;34.64
70200;BME280;57587;55.688;37.600;2022-07-10T09:05:26;98913.94;;;32.31;33.74
70200;BME280;57587;55.688;37.600;2022-07-10T09:07:54;98910.84;;;32.45;33.15
70200;BME280;57587;55.688;37.600;2022-07-10T09:10:26;98906.53;;;32.35;34.32
70200;BME280;57587;55.688;37.600;2022-07-10T09:13:01;98909.75;;;32.12;34.33
70200;BME280;57587;55.688;37.600;2022-07-10T09:15:50;98913.66;;;32.11;34.01
70200;BME280;57587;55.688;37.600;2022-07-10T09:18:19;98896.59;;;31.43;34.15
70200;BME280;57587;55.688;37.600;2022-07-10T09:20:47;98901.88;;;31.06;34.47
70200;BME280;57587;55.688;37.600;2022-07-10T09:23:19;98900.63;;;30.74;35.06
70200;BME280;57587;55.688;37.600;2022-07-10T09:25:48;98903.53;;;30.48;35.36
70200;BME280;57587;55.688;37.600;2022-07-10T09:28:19;98896.31;;;30.26;35.98
70200;BME280;57587;55.688;37.600;2022-07-10T09:30:50;98902.41;;;29.84;36.20
70200;BME280;57587;55.688;37.600;2022-07-10T09:33:25;98897.25;;;29.83;36.77
70200;BME280;57587;55.688;37.600;2022-07-10T09:36:10;98898.50;;;29.85;35.75
70200;BME280;57587;55.688;37.600;2022-07-10T09:41:21;98899.50;;;29.72;35.93
70200;BME280;57587;55.688;37.600;2022-07-10T09:43:56;98894.50;;;29.39;36.49
70200;BME280;57587;55.688;37.600;2022-07-10T09:46:31;98901.97;;;29.30;37.42
70200;BME280;57587;55.688;37.600;2022-07-10T09:49:09;98888.00;;;29.35;37.03
70200;BME280;57587;55.688;37.600;2022-07-10T09:51:41;98880.88;;;29.34;36.83
70200;BME280;57587;55.688;37.600;2022-07-10T09:54:15;98874.53;;;29.60;36.55
70200;BME280;57587;55.688;37.600;2022-07-10T09:59:20;98873.88;;;29.80;36.59
70200;BME280;57587;55.688;37.600;2022-07-10T10:01:51;98862.84;;;29.89;36.85
70200;BME280;57587;55.688;37.600;2022-07-10T10:04:20;98865.47;;;29.68;37.23
70200;BME280;57587;55.688;37.600;2022-07-10T10:06:51;98860.31;;;29.40;37.18
70200;BME280;57587;55.688;37.600;2022-07-10T10:09:45;98851.38;;;29.52;38.15
70200;BME280;57587;55.688;37.600;2022-07-10T10:12:17;98848.59;;;29.78;36.21
70200;BME280;57587;55.688;37.600;2022-07-10T10:14:46;98849.72;;;29.60;36.30
70200;BME280;57587;55.688;37.600;2022-07-10T10:17:15;98857.06;;;29.38;36.27
70200;BME280;57587;55.688;37.600;2022-07-10T10:19:45;98864.16;;;28.87;36.38
70200;BME280;57587;55.688;37.600;2022-07-10T10:22:33;98853.13;;;28.70;37.27
70200;BME280;57587;55.688;37.600;2022-07-10T10:25:01;98867.19;;;28.60;34.90
70200;BME280;57587;55.688;37.600;2022-07-10T10:27:31;98859.69;;;28.43;35.71
70200;BME280;57587;55.688;37.600;2022-07-10T10:29:58;98854.31;;;28.38;36.74
70200;BME280;57587;55.688;37.600;2022-07-10T10:32:30;98857.75;;;28.43;36.38
70200;BME280;57587;55.688;37.600;2022-07-10T10:34:58;98851.13;;;28.44;35.78
70200;BME280;57587;55.688;37.600;2022-07-10T10:37:50;98855.25;;;28.33;37.29
70200;BME280;57587;55.688;37.600;2022-07-10T10:40:37;98843.06;;;28.17;36.92
70200;BME280;57587;55.688;37.600;2022-07-10T10:43:20;98861.19;;;28.18;36.90
70200;BME280;57587;55.688;37.600;2022-07-10T10:45:48;98850.69;;;28.20;37.72
70200;BME280;57587;55.688;37.600;2022-07-10T10:48:16;98848.13;;;28.32;37.39
70200;BME280;57587;55.688;37.600;2022-07-10T10:51:04;98850.38;;;28.30;37.82
70200;BME280;57587;55.688;37.600;2022-07-10T10:53:31;98852.03;;;28.31;37.14
70200;BME280;57587;55.688;37.600;2022-07-10T10:58:44;98847.44;;;28.18;36.45
70200;BME280;57587;55.688;37.600;2022-07-10T11:06:43;98837.88;;;28.46;35.02
70200;BME280;57587;55.688;37.600;2022-07-10T11:09:32;98850.47;;;28.47;35.72
70200;BME280;57587;55.688;37.600;2022-07-10T11:12:09;98842.41;;;28.60;35.80
70200;BME280;57587;55.688;37.600;2022-07-10T11:14:39;98848.59;;;28.65;36.47
70200;BME280;57587;55.688;37.600;2022-07-10T11:17:09;98856.22;;;28.77;36.23
70200;BME280;57587;55.688;37.600;2022-07-10T11:19:37;98874.84;;;28.89;35.09
70200;BME280;57587;55.688;37.600;2022-07-10T11:28:22;98846.38;;;29.28;35.59
70200;BME280;57587;55.688;37.600;2022-07-10T11:30:54;98853.03;;;29.18;35.41
70200;BME280;57587;55.688;37.600;2022-07-10T11:33:22;98841.34;;;29.13;35.44
70200;BME280;57587;55.688;37.600;2022-07-10T11:35:53;98850.94;;;29.24;36.35
70200;BME280;57587;55.688;37.600;2022-07-10T11:38:24;98853.84;;;29.28;35.53
70200;BME280;57587;55.688;37.600;2022-07-10T11:40:52;98861.59;;;29.17;34.92
70200;BME280;57587;55.688;37.600;2022-07-10T11:43:22;98846.72;;;29.18;35.56
70200;BME280;57587;55.688;37.600;2022-07-10T11:45:51;98846.53;;;29.23;35.89
70200;BME280;57587;55.688;37.600;2022-07-10T11:48:21;98842.66;;;29.24;35.47
70200;BME280;57587;55.688;37.600;2022-07-10T11:50:50;98851.06;;;29.36;35.76
70200;BME280;57587;55.688;37.600;2022-07-10T11:53:25;98843.78;;;29.40;36.05
70200;BME280;57587;55.688;37.600;2022-07-10T11:55:52;98835.50;;;29.49;35.99
70200;BME280;57587;55.688;37.600;2022-07-10T11:58:20;98842.47;;;29.64;35.94
70200;BME280;57587;55.688;37.600;2022-07-10T12:00:58;98850.44;;;29.39;36.02
70200;BME280;57587;55.688;37.600;2022-07-10T12:03:26;98830.81;;;29.32;35.96
70200;BME280;57587;55.688;37.600;2022-07-10T12:06:01;98831.78;;;29.36;35.79
70200;BME280;57587;55.688;37.600;2022-07-10T12:08:29;98822.38;;;29.37;36.38
70200;BME280;57587;55.688;37.600;2022-07-10T12:10:56;98821.56;;;29.46;35.62
70200;BME280;57587;55.688;37.600;2022-07-10T12:13:24;98816.06;;;29.46;36.03
70200;BME280;57587;55.688;37.600;2022-07-10T12:15:56;98821.69;;;29.58;36.26
70200;BME280;57587;55.688;37.600;2022-07-10T12:18:23;98813.75;;;29.65;36.19
70200;BME280;57587;55.688;37.600;2022-07-10T12:20:51;98802.06;;;29.68;36.63
70200;BME280;57587;55.688;37.600;2022-07-10T12:23:22;98821.06;;;29.61;35.96
70200;BME280;57587;55.688;37.600;2022-07-10T12:25:49;98804.34;;;29.57;36.72
70200;BME280;57587;55.688;37.600;2022-07-10T12:28:17;98803.06;;;29.55;35.81
70200;BME280;57587;55.688;37.600;2022-07-10T12:30:48;98796.78;;;29.46;35.87
70200;BME280;57587;55.688;37.600;2022-07-10T12:33:20;98797.41;;;29.42;36.29
70200;BME280;57587;55.688;37.600;2022-07-10T12:35:53;98802.09;;;29.51;36.47
70200;BME280;57587;55.688;37.600;2022-07-10T12:38:29;98799.81;;;29.53;37.22
70200;BME280;57587;55.688;37.600;2022-07-10T12:41:10;98793.81;;;29.51;36.95
70200;BME280;57587;55.688;37.600;2022-07-10T12:43:38;98798.22;;;29.43;36.06
70200;BME280;57587;55.688;37.600;2022-07-10T12:46:20;98786.59;;;29.20;34.71
70200;BME280;57587;55.688;37.600;2022-07-10T12:49:06;98783.66;;;29.25;35.25
70200;BME280;57587;55.688;37.600;2022-07-10T12:54:32;98786.72;;;29.41;36.00
70200;BME280;57587;55.688;37.600;2022-07-10T12:57:00;98791.41;;;29.49;36.45
70200;BME280;57587;55.688;37.600;2022-07-10T12:59:27;98783.81;;;29.37;35.63
70200;BME280;57587;55.688;37.600;2022-07-10T13:02:08;98783.50;;;29.30;35.03
70200;BME280;57587;55.688;37.600;2022-07-10T13:04:40;98781.56;;;29.22;35.55
70200;BME280;57587;55.688;37.600;2022-07-10T13:07:18;98783.81;;;29.20;35.40
70200;BME280;57587;55.688;37.600;2022-07-10T13:09:45;98781.06;;;29.20;35.34
70200;BME280;57587;55.688;37.600;2022-07-10T13:12:17;98771.34;;;29.23;35.67
70200;BME280;57587;55.688;37.600;2022-07-10T13:14:44;98768.28;;;29.24;35.26
70200;BME280;57587;55.688;37.600;2022-07-10T13:17:11;98764.69;;;29.32;36.00
70200;BME280;57587;55.688;37.600;2022-07-10T13:19:38;98752.88;;;29.23;36.37
70200;BME280;57587;55.688;37.600;2022-07-10T13:22:06;98746.75;;;29.17;35.97
70200;BME280;57587;55.688;37.600;2022-07-10T13:24:32;98757.78;;;29.09;35.88
70200;BME280;57587;55.688;37.600;2022-07-10T13:26:59;98761.84;;;29.03;36.25
70200;BME280;57587;55.688;37.600;2022-07-10T13:29:27;98770.09;;;29.03;36.41